createdAt,value
2023-04-05T00:00:15.560Z,17.82
2023-04-05T00:02:44.087Z,17.49
2023-04-05T00:05:12.620Z,17.19
2023-04-05T00:07:40.670Z,17.46
2023-04-05T00:10:08.945Z,17.59
2023-04-05T00:12:36.644Z,17.65
2023-04-05T00:15:05.179Z,17.71
2023-04-05T00:17:35.397Z,17.58
2023-04-05T00:20:07.280Z,17.44
2023-04-05T00:22:36.053Z,17.50
2023-04-05T00:25:03.747Z,17.33
2023-04-05T00:27:31.609Z,17.11
2023-04-05T00:29:59.335Z,17.08
2023-04-05T00:32:27.054Z,17.09
2023-04-05T00:34:56.247Z,17.01
2023-04-05T00:37:23.995Z,17.09
2023-04-05T00:39:53.702Z,16.99
2023-04-05T00:42:21.446Z,17.18
2023-04-05T00:44:49.233Z,17.21
2023-04-05T00:47:17.036Z,17.20
2023-04-05T00:49:44.751Z,17.27
2023-04-05T00:52:14.663Z,17.20
2023-04-05T00:54:43.682Z,17.00
2023-04-05T00:57:11.594Z,16.82
2023-04-05T00:59:39.292Z,16.84
2023-04-05T01:02:13.661Z,16.79
2023-04-05T01:04:50.312Z,16.78
2023-04-05T01:07:27.280Z,16.71
2023-04-05T01:09:58.054Z,16.80
2023-04-05T01:12:28.852Z,16.78
2023-04-05T01:14:57.119Z,16.88
2023-04-05T01:17:28.392Z,16.75
2023-04-05T01:19:59.417Z,16.72
2023-04-05T01:23:07.290Z,16.60
2023-04-05T01:26:10.921Z,16.65
2023-04-05T01:29:01.064Z,16.51
2023-04-05T01:31:36.790Z,16.41
2023-04-05T01:34:09.609Z,16.44
2023-04-05T01:36:41.318Z,16.36
2023-04-05T01:39:12.555Z,16.35
2023-04-05T01:41:41.021Z,16.24
2023-04-05T01:44:08.837Z,16.23
2023-04-05T01:46:37.998Z,16.18
2023-04-05T01:49:06.042Z,16.42
2023-04-05T01:51:33.750Z,16.50
2023-04-05T01:54:01.523Z,16.56
2023-04-05T01:56:29.222Z,16.20
2023-04-05T01:58:56.992Z,16.38
2023-04-05T02:01:25.091Z,16.15
2023-04-05T02:03:54.491Z,16.14
2023-04-05T02:06:22.328Z,15.88
2023-04-05T02:08:50.128Z,15.99
2023-04-05T02:11:17.889Z,16.07
2023-04-05T02:13:45.614Z,16.23
2023-04-05T02:16:13.555Z,15.83
2023-04-05T02:18:41.439Z,15.64
2023-04-05T02:21:11.658Z,15.15
2023-04-05T02:23:39.435Z,15.60
2023-04-05T02:26:07.178Z,15.98
2023-04-05T02:28:34.942Z,15.55
2023-04-05T02:31:02.703Z,15.51
2023-04-05T02:33:31.121Z,15.63
2023-04-05T02:35:58.922Z,16.01
2023-04-05T02:38:28.088Z,15.79
2023-04-05T02:40:55.765Z,15.79
2023-04-05T02:43:23.449Z,15.84
2023-04-05T02:45:52.095Z,15.67
2023-04-05T02:48:19.855Z,15.67
2023-04-05T02:50:48.831Z,15.49
2023-04-05T02:53:17.163Z,15.45
2023-04-05T02:55:53.234Z,15.57
2023-04-05T02:58:21.046Z,15.51
2023-04-05T03:00:51.433Z,15.55
2023-04-05T03:03:19.401Z,15.34
2023-04-05T03:05:48.645Z,15.24
2023-04-05T03:08:19.658Z,15.34
2023-04-05T03:10:48.950Z,15.36
2023-04-05T03:13:16.679Z,15.39
2023-04-05T03:15:44.690Z,15.54
2023-04-05T03:18:12.467Z,15.51
2023-04-05T03:20:40.446Z,15.09
2023-04-05T03:23:09.027Z,15.21
2023-04-05T03:25:37.609Z,15.21
2023-04-05T03:28:08.580Z,14.86
2023-04-05T03:30:36.825Z,15.02
2023-04-05T03:33:04.761Z,15.03
2023-04-05T03:35:32.487Z,14.78
2023-04-05T03:38:00.603Z,15.13
2023-04-05T03:40:28.345Z,14.66
2023-04-05T03:42:56.069Z,14.95
2023-04-05T03:45:25.562Z,15.13
2023-04-05T03:47:53.639Z,15.22
2023-04-05T03:50:21.466Z,15.02
2023-04-05T03:52:49.163Z,14.48
2023-04-05T03:55:17.067Z,14.67
2023-04-05T03:57:45.017Z,14.79
2023-04-05T04:00:14.703Z,14.80
2023-04-05T04:02:46.274Z,14.51
2023-04-05T04:05:14.774Z,14.60
2023-04-05T04:07:42.711Z,14.52
2023-04-05T04:10:12.192Z,14.49
2023-04-05T04:12:39.950Z,14.51
2023-04-05T04:15:08.792Z,14.37
2023-04-05T04:17:38.224Z,14.47
2023-04-05T04:20:10.974Z,14.33
2023-04-05T04:22:40.541Z,14.51
2023-04-05T04:25:10.990Z,14.65
2023-04-05T04:27:40.409Z,14.62
2023-04-05T04:30:10.585Z,14.72
2023-04-05T04:32:52.062Z,14.98
2023-04-05T04:35:24.965Z,14.75
2023-04-05T04:37:55.201Z,14.91
2023-04-05T04:40:25.925Z,14.85
2023-04-05T04:42:54.725Z,14.94
2023-04-05T04:45:22.492Z,14.81
2023-04-05T04:47:53.499Z,14.72
2023-04-05T04:50:22.969Z,15.09
2023-04-05T04:52:50.790Z,14.90
2023-04-05T04:55:18.458Z,14.92
2023-04-05T04:57:46.145Z,14.89
2023-04-05T05:00:14.874Z,14.88
2023-04-05T05:02:44.763Z,14.65
2023-04-05T05:05:12.724Z,14.83
2023-04-05T05:07:42.762Z,14.84
2023-04-05T05:10:12.037Z,15.29
2023-04-05T05:12:40.083Z,15.33
2023-04-05T05:15:09.106Z,15.39
2023-04-05T05:17:37.527Z,15.52
2023-04-05T05:20:09.610Z,15.56
2023-04-05T05:22:37.950Z,15.62
2023-04-05T05:25:09.939Z,15.35
2023-04-05T05:27:37.652Z,15.51
2023-04-05T05:30:06.178Z,15.53
2023-04-05T05:32:33.991Z,15.64
2023-04-05T05:35:01.740Z,15.60
2023-04-05T05:37:31.784Z,15.47
2023-04-05T05:40:00.116Z,15.57
2023-04-05T05:42:29.228Z,15.36
2023-04-05T05:44:56.963Z,15.30
2023-04-05T05:47:24.747Z,15.23
2023-04-05T05:49:52.653Z,15.20
2023-04-05T05:52:20.502Z,15.48
2023-04-05T05:54:48.216Z,15.50
2023-04-05T05:57:15.916Z,15.48
2023-04-05T05:59:44.954Z,15.62
2023-04-05T06:02:13.176Z,15.59
2023-04-05T06:04:40.994Z,15.70
2023-04-05T06:07:08.864Z,15.70
2023-04-05T06:09:36.764Z,15.70
2023-04-05T06:12:04.787Z,15.82
2023-04-05T06:14:32.539Z,15.80
2023-04-05T06:17:01.633Z,15.83
2023-04-05T06:19:29.372Z,15.82
2023-04-05T06:21:57.058Z,15.64
2023-04-05T06:24:24.953Z,15.78
2023-04-05T06:26:52.867Z,15.70
2023-04-05T06:29:20.592Z,15.71
2023-04-05T06:31:48.394Z,15.66
2023-04-05T06:34:17.571Z,15.88
2023-04-05T06:36:46.653Z,15.83
2023-04-05T06:39:14.713Z,15.97
2023-04-05T06:41:42.520Z,16.39
2023-04-05T06:44:10.225Z,16.69
2023-04-05T06:46:37.941Z,16.28
2023-04-05T06:49:05.691Z,16.27
2023-04-05T06:51:34.991Z,16.55
2023-04-05T06:54:02.695Z,16.60
2023-04-05T06:56:30.530Z,16.70
2023-04-05T06:58:59.576Z,17.21
2023-04-05T07:01:27.528Z,17.39
2023-04-05T07:03:55.598Z,17.75
2023-04-05T07:06:24.148Z,17.90
2023-04-05T07:08:53.555Z,17.83
2023-04-05T07:11:21.471Z,18.13
2023-04-05T07:13:49.172Z,18.52
2023-04-05T07:16:19.240Z,18.38
2023-04-05T07:18:47.084Z,18.55
2023-04-05T07:21:15.991Z,18.70
2023-04-05T07:23:43.844Z,18.82
2023-04-05T07:26:13.373Z,18.41
2023-04-05T07:28:41.161Z,18.32
2023-04-05T07:31:08.924Z,18.32
2023-04-05T07:33:36.655Z,18.57
2023-04-05T07:36:04.560Z,18.72
2023-04-05T07:38:32.434Z,18.93
2023-04-05T07:41:00.349Z,18.96
2023-04-05T07:43:29.486Z,19.32
2023-04-05T07:46:02.659Z,19.24
2023-04-05T07:48:30.925Z,19.45
2023-04-05T07:51:03.795Z,19.21
2023-04-05T07:53:31.665Z,19.51
2023-04-05T07:55:59.374Z,19.82
2023-04-05T07:58:30.482Z,19.93
2023-04-05T08:01:01.875Z,20.01
2023-04-05T08:03:30.015Z,19.91
2023-04-05T08:05:58.105Z,19.89
2023-04-05T08:08:26.388Z,20.40
2023-04-05T08:10:54.143Z,20.27
2023-04-05T08:13:21.948Z,20.18
2023-04-05T08:15:50.077Z,20.29
2023-04-05T08:18:19.251Z,20.57
2023-04-05T08:20:52.217Z,20.38
2023-04-05T08:23:19.938Z,20.67
2023-04-05T08:25:47.713Z,20.69
2023-04-05T08:28:15.554Z,20.88
2023-04-05T08:30:43.462Z,20.94
2023-04-05T08:33:11.578Z,21.10
2023-04-05T08:35:41.163Z,21.19
2023-04-05T08:38:08.913Z,21.41
2023-04-05T08:40:42.161Z,21.34
2023-04-05T08:43:14.526Z,21.72
2023-04-05T08:45:52.226Z,22.20
2023-04-05T08:48:20.822Z,22.58
2023-04-05T08:50:54.950Z,22.44
2023-04-05T08:53:23.033Z,22.41
2023-04-05T08:55:52.436Z,22.33
2023-04-05T08:58:23.219Z,22.12
2023-04-05T09:00:52.042Z,22.20
2023-04-05T09:03:23.209Z,21.91
2023-04-05T09:05:54.334Z,21.91
2023-04-05T09:08:22.363Z,22.70
2023-04-05T09:10:50.923Z,22.81
2023-04-05T09:13:18.645Z,22.18
2023-04-05T09:15:47.203Z,21.74
2023-04-05T09:18:25.426Z,21.55
2023-04-05T09:21:03.876Z,22.42
2023-04-05T09:23:31.667Z,22.53
2023-04-05T09:25:59.344Z,22.80
2023-04-05T09:28:42.349Z,21.52
2023-04-05T09:31:10.100Z,20.93
2023-04-05T09:33:37.873Z,22.23
2023-04-05T09:36:07.519Z,23.26
2023-04-05T09:38:45.498Z,22.45
2023-04-05T09:41:13.184Z,22.15
2023-04-05T09:43:41.897Z,23.32
2023-04-05T09:46:30.522Z,23.40
2023-04-05T09:48:58.492Z,22.59
2023-04-05T09:51:33.897Z,23.27
2023-04-05T09:54:03.277Z,22.67
2023-04-05T09:56:32.591Z,23.07
2023-04-05T09:59:02.277Z,23.59
2023-04-05T10:01:32.011Z,23.71
2023-04-05T10:04:00.965Z,23.38
2023-04-05T10:06:40.594Z,23.14
2023-04-05T10:09:09.977Z,23.21
2023-04-05T10:11:38.880Z,23.55
2023-04-05T10:14:08.492Z,24.67
2023-04-05T10:16:39.837Z,23.09
2023-04-05T10:19:12.983Z,24.56
2023-04-05T10:21:44.349Z,24.75
2023-04-05T10:24:19.785Z,25.09
2023-04-05T10:27:00.969Z,24.87
2023-04-05T10:29:36.699Z,24.94
2023-04-05T10:32:12.490Z,25.13
2023-04-05T10:34:44.512Z,25.22
2023-04-05T10:37:27.616Z,24.90
2023-04-05T10:39:58.833Z,25.07
2023-04-05T10:42:29.139Z,25.29
2023-04-05T10:45:04.618Z,25.23
2023-04-05T10:47:33.197Z,24.86
2023-04-05T10:50:05.360Z,25.48
2023-04-05T10:52:35.769Z,25.33
2023-04-05T10:55:04.604Z,24.76
2023-04-05T10:57:33.479Z,23.92
2023-04-05T11:00:02.445Z,23.69
2023-04-05T11:02:30.741Z,23.86
2023-04-05T11:04:59.272Z,25.33
2023-04-05T11:07:26.956Z,24.20
2023-04-05T11:09:57.585Z,25.08
2023-04-05T11:13:02.800Z,23.49
2023-04-05T11:15:32.713Z,24.36
2023-04-05T11:18:08.891Z,24.88
2023-04-05T11:20:45.189Z,24.57
2023-04-05T11:23:13.967Z,25.27
2023-04-05T11:25:48.364Z,24.70
2023-04-05T11:28:29.643Z,25.69
2023-04-05T11:30:58.784Z,23.75
2023-04-05T11:33:57.283Z,23.54
2023-04-05T11:36:33.997Z,23.99
2023-04-05T11:39:26.228Z,23.71
2023-04-05T11:42:03.853Z,22.87
2023-04-05T11:44:41.858Z,24.41
2023-04-05T11:47:10.772Z,24.06
2023-04-05T11:49:39.344Z,23.65
2023-04-05T11:52:15.573Z,23.96
2023-04-05T11:54:47.010Z,25.88
2023-04-05T11:57:19.644Z,26.62
2023-04-05T11:59:47.460Z,26.42
2023-04-05T12:02:15.742Z,24.76
2023-04-05T12:04:43.516Z,23.25
2023-04-05T12:07:18.729Z,24.22
2023-04-05T12:10:16.003Z,25.68
2023-04-05T12:12:47.670Z,26.25
2023-04-05T12:15:18.836Z,26.05
2023-04-05T12:17:49.632Z,25.26
2023-04-05T12:20:20.511Z,25.18
2023-04-05T12:22:50.127Z,25.58
2023-04-05T12:25:18.714Z,25.67
2023-04-05T12:27:48.251Z,26.67
2023-04-05T12:30:17.797Z,27.22
2023-04-05T12:32:47.664Z,26.11
2023-04-05T12:35:17.675Z,26.19
2023-04-05T12:37:45.723Z,26.29
2023-04-05T12:40:14.724Z,26.12
2023-04-05T12:42:43.072Z,26.00
2023-04-05T12:45:15.592Z,25.10
2023-04-05T12:47:51.557Z,25.80
2023-04-05T12:50:20.918Z,24.70
2023-04-05T12:52:59.340Z,25.75
2023-04-05T12:55:28.706Z,26.57
2023-04-05T12:57:59.588Z,27.42
2023-04-05T13:00:30.989Z,27.00
2023-04-05T13:03:00.215Z,26.58
2023-04-05T13:05:29.742Z,27.05
2023-04-05T13:07:58.071Z,26.81
2023-04-05T13:10:26.803Z,26.80
2023-04-05T13:12:54.529Z,26.85
2023-04-05T13:15:22.367Z,27.07
2023-04-05T13:17:53.332Z,27.24
2023-04-05T13:20:21.735Z,27.35
2023-04-05T13:22:49.479Z,27.20
2023-04-05T13:25:17.958Z,27.56
2023-04-05T13:27:45.914Z,28.09
2023-04-05T13:30:14.233Z,27.67
2023-04-05T13:32:42.359Z,27.80
2023-04-05T13:35:11.806Z,27.69
2023-04-05T13:37:39.669Z,26.64
2023-04-05T13:40:08.826Z,26.31
2023-04-05T13:42:36.716Z,25.32
2023-04-05T13:45:04.823Z,26.07
2023-04-05T13:47:32.530Z,26.91
2023-04-05T13:50:00.277Z,27.07
2023-04-05T13:52:29.793Z,27.17
2023-04-05T13:55:02.100Z,27.94
2023-04-05T13:57:31.894Z,28.38
2023-04-05T13:59:59.867Z,26.88
2023-04-05T14:02:28.016Z,27.98
2023-04-05T14:04:55.956Z,28.50
2023-04-05T14:07:25.339Z,28.13
2023-04-05T14:09:54.532Z,27.08
2023-04-05T14:12:22.317Z,26.22
2023-04-05T14:14:50.160Z,24.98
2023-04-05T14:17:18.185Z,25.88
2023-04-05T14:19:45.992Z,26.79
2023-04-05T14:22:13.810Z,26.09
2023-04-05T14:24:41.609Z,25.93
2023-04-05T14:27:10.750Z,26.99
2023-04-05T14:29:38.582Z,26.64
2023-04-05T14:32:06.903Z,27.41
2023-04-05T14:34:34.804Z,27.74
2023-04-05T14:37:04.143Z,25.32
2023-04-05T14:39:31.981Z,25.95
2023-04-05T14:41:59.821Z,25.99
2023-04-05T14:44:28.939Z,27.08
2023-04-05T14:46:56.710Z,26.48
2023-04-05T14:49:24.541Z,26.61
2023-04-05T14:51:52.323Z,26.90
2023-04-05T14:54:20.233Z,26.17
2023-04-05T14:56:48.052Z,25.43
2023-04-05T14:59:15.836Z,26.56
2023-04-05T15:01:46.925Z,25.53
2023-04-05T15:04:14.764Z,24.95
2023-04-05T15:06:42.691Z,26.30
2023-04-05T15:09:10.516Z,25.60
2023-04-05T15:11:39.312Z,26.52
2023-04-05T15:14:11.319Z,27.50
2023-04-05T15:16:44.988Z,27.69
2023-04-05T15:19:12.804Z,27.69
2023-04-05T15:21:41.192Z,27.39
2023-04-05T15:24:09.081Z,27.19
2023-04-05T15:26:36.858Z,27.45
2023-04-05T15:29:04.653Z,27.02
2023-04-05T15:31:35.289Z,27.47
2023-04-05T15:34:05.789Z,26.94
2023-04-05T15:36:36.037Z,27.55
2023-04-05T15:39:05.033Z,27.53
2023-04-05T15:41:34.300Z,26.81
2023-04-05T15:44:03.583Z,26.92
2023-04-05T15:46:31.888Z,27.27
2023-04-05T15:49:00.178Z,28.04
2023-04-05T15:51:29.616Z,28.05
2023-04-05T15:53:57.900Z,27.98
2023-04-05T15:56:25.705Z,27.01
2023-04-05T15:58:53.589Z,26.08
2023-04-05T16:01:21.428Z,26.90
2023-04-05T16:03:49.520Z,27.00
2023-04-05T16:06:17.312Z,26.64
2023-04-05T16:08:46.453Z,26.56
2023-04-05T16:11:14.306Z,26.46
2023-04-05T16:13:42.150Z,27.39
2023-04-05T16:16:10.023Z,27.67
2023-04-05T16:18:37.901Z,27.28
2023-04-05T16:21:06.211Z,26.52
2023-04-05T16:23:34.068Z,26.98
2023-04-05T16:26:05.555Z,26.23
2023-04-05T16:28:33.392Z,27.08
2023-04-05T16:31:01.227Z,26.78
2023-04-05T16:33:29.525Z,27.17
2023-04-05T16:35:57.392Z,26.85
2023-04-05T16:38:25.375Z,27.15
2023-04-05T16:40:53.229Z,26.76
2023-04-05T16:43:22.438Z,26.60
2023-04-05T16:45:50.510Z,26.34
2023-04-05T16:48:18.355Z,26.82
2023-04-05T16:50:46.120Z,27.16
2023-04-05T16:53:14.957Z,27.00
2023-04-05T16:55:42.839Z,27.21
2023-04-05T16:58:10.623Z,26.94
2023-04-05T17:00:39.797Z,27.34
2023-04-05T17:03:07.685Z,27.43
2023-04-05T17:05:35.521Z,27.51
2023-04-05T17:08:03.312Z,27.42
2023-04-05T17:10:31.158Z,25.89
2023-04-05T17:12:59.066Z,26.39
2023-04-05T17:15:26.850Z,25.98
2023-04-05T17:17:56.042Z,26.16
2023-04-05T17:20:23.852Z,25.54
2023-04-05T17:22:51.824Z,25.83
2023-04-05T17:25:19.796Z,26.16
2023-04-05T17:27:47.609Z,26.64
2023-04-05T17:30:16.088Z,26.02
2023-04-05T17:32:43.892Z,25.48
2023-04-05T17:35:13.491Z,24.98
2023-04-05T17:37:41.316Z,25.82
2023-04-05T17:40:10.056Z,25.22
2023-04-05T17:42:37.805Z,25.46
2023-04-05T17:45:07.127Z,25.46
2023-04-05T17:47:35.849Z,25.81
2023-04-05T17:50:03.758Z,25.78
2023-04-05T17:52:32.859Z,25.94
2023-04-05T17:55:00.714Z,25.07
2023-04-05T17:57:28.618Z,25.60
2023-04-05T17:59:57.344Z,25.21
2023-04-05T18:02:25.390Z,25.42
2023-04-05T18:04:53.245Z,25.72
2023-04-05T18:07:21.034Z,24.80
2023-04-05T18:09:50.210Z,24.86
2023-04-05T18:12:18.136Z,25.03
2023-04-05T18:14:45.996Z,24.80
2023-04-05T18:17:13.767Z,25.09
2023-04-05T18:19:41.700Z,24.80
2023-04-05T18:22:09.549Z,24.98
2023-04-05T18:24:37.286Z,24.36
2023-04-05T18:27:06.551Z,24.38
2023-04-05T18:29:37.785Z,24.79
2023-04-05T18:32:05.908Z,25.26
2023-04-05T18:34:34.468Z,25.16
2023-04-05T18:37:02.941Z,24.35
2023-04-05T18:39:30.723Z,24.17
2023-04-05T18:41:58.747Z,24.33
2023-04-05T18:44:27.929Z,24.36
2023-04-05T18:46:56.991Z,23.01
2023-04-05T18:49:25.055Z,23.54
2023-04-05T18:51:52.882Z,24.23
2023-04-05T18:54:20.675Z,24.30
2023-04-05T18:56:48.497Z,24.56
2023-04-05T18:59:17.363Z,24.78
2023-04-05T19:01:46.720Z,24.47
2023-04-05T19:04:16.268Z,24.88
2023-04-05T19:06:44.100Z,24.00
2023-04-05T19:09:11.973Z,24.63
2023-04-05T19:11:39.997Z,24.55
2023-04-05T19:14:07.772Z,24.30
2023-04-05T19:16:35.547Z,24.15
2023-04-05T19:19:06.353Z,23.92
2023-04-05T19:21:34.537Z,24.06
2023-04-05T19:24:02.323Z,23.78
2023-04-05T19:26:32.034Z,23.88
2023-04-05T19:29:00.993Z,23.76
2023-04-05T19:31:29.677Z,23.86
2023-04-05T19:33:57.566Z,24.03
2023-04-05T19:36:27.982Z,24.28
2023-04-05T19:38:55.754Z,23.65
2023-04-05T19:41:26.070Z,23.35
2023-04-05T19:43:53.843Z,23.80
2023-04-05T19:46:21.694Z,23.35
2023-04-05T19:48:49.514Z,23.49
2023-04-05T19:51:19.479Z,24.00
2023-04-05T19:53:49.582Z,23.39
2023-04-05T19:56:20.294Z,24.06
2023-04-05T19:58:50.032Z,23.64
2023-04-05T20:01:34.582Z,24.07
2023-04-05T20:04:03.729Z,23.31
2023-04-05T20:06:34.677Z,23.03
2023-04-05T20:09:07.583Z,23.70
2023-04-05T20:11:35.957Z,23.10
2023-04-05T20:14:05.251Z,23.47
2023-04-05T20:16:34.706Z,23.54
2023-04-05T20:19:04.451Z,22.87
2023-04-05T20:21:32.440Z,23.68
2023-04-05T20:24:00.948Z,23.11
2023-04-05T20:26:31.949Z,23.71
2023-04-05T20:29:04.328Z,22.92
2023-04-05T20:31:33.856Z,23.71
2023-04-05T20:34:10.595Z,23.34
2023-04-05T20:36:44.171Z,23.23
2023-04-05T20:39:12.337Z,23.00
2023-04-05T20:41:41.590Z,21.87
2023-04-05T20:44:09.409Z,21.50
2023-04-05T20:46:37.567Z,22.55
2023-04-05T20:49:05.672Z,22.00
2023-04-05T20:51:33.666Z,21.58
2023-04-05T20:54:01.474Z,22.08
2023-04-05T20:56:29.230Z,22.03
2023-04-05T20:58:58.462Z,21.52
2023-04-05T21:01:27.174Z,21.93
2023-04-05T21:03:55.297Z,21.38
2023-04-05T21:06:23.187Z,21.60
2023-04-05T21:08:51.015Z,22.09
2023-04-05T21:11:18.814Z,22.24
2023-04-05T21:13:46.598Z,21.91
2023-04-05T21:16:16.248Z,21.98
2023-04-05T21:18:44.167Z,22.32
2023-04-05T21:21:11.970Z,22.32
2023-04-05T21:23:39.794Z,22.36
2023-04-05T21:26:07.542Z,22.17
2023-04-05T21:28:35.310Z,21.34
2023-04-05T21:31:03.187Z,21.32
2023-04-05T21:33:33.093Z,21.42
2023-04-05T21:36:01.316Z,21.46
2023-04-05T21:38:29.242Z,21.85
2023-04-05T21:40:57.061Z,21.55
2023-04-05T21:43:24.806Z,21.91
2023-04-05T21:45:53.169Z,21.06
2023-04-05T21:48:21.240Z,20.95
2023-04-05T21:50:50.427Z,21.26
2023-04-05T21:53:18.813Z,21.44
2023-04-05T21:55:46.597Z,21.22
2023-04-05T21:58:14.428Z,21.24
2023-04-05T22:00:42.412Z,21.58
2023-04-05T22:03:10.197Z,21.84
2023-04-05T22:05:39.045Z,22.06
2023-04-05T22:08:08.692Z,22.09
2023-04-05T22:10:38.060Z,22.26
2023-04-05T22:13:05.884Z,22.07
2023-04-05T22:15:34.145Z,21.80
2023-04-05T22:18:02.541Z,22.00
2023-04-05T22:20:30.438Z,22.11
2023-04-05T22:22:58.278Z,22.15
2023-04-05T22:25:27.728Z,22.29
2023-04-05T22:27:59.729Z,22.22
2023-04-05T22:30:28.663Z,22.12
2023-04-05T22:32:56.787Z,22.00
2023-04-05T22:35:24.747Z,22.00
2023-04-05T22:37:52.619Z,22.12
2023-04-05T22:40:26.229Z,22.21
2023-04-05T22:42:55.563Z,22.00
2023-04-05T22:45:23.641Z,22.09
2023-04-05T22:47:51.677Z,22.27
2023-04-05T22:50:19.812Z,22.10
2023-04-05T22:52:47.778Z,22.20
2023-04-05T22:55:15.728Z,22.32
2023-04-05T22:57:43.537Z,22.36
2023-04-05T23:00:14.131Z,22.30
2023-04-05T23:02:42.030Z,22.37
2023-04-05T23:05:13.078Z,22.36
2023-04-05T23:07:40.899Z,22.25
2023-04-05T23:10:09.330Z,22.20
2023-04-05T23:12:37.089Z,22.01
2023-04-05T23:15:06.158Z,21.98
2023-04-05T23:17:35.365Z,22.18
2023-04-05T23:20:05.744Z,22.24
2023-04-05T23:22:34.905Z,22.27
2023-04-05T23:25:03.249Z,22.20
2023-04-05T23:27:31.753Z,22.21
2023-04-05T23:29:59.648Z,22.07
2023-04-05T23:32:27.518Z,22.12
2023-04-05T23:34:56.711Z,22.15
2023-04-05T23:37:24.487Z,22.15
2023-04-05T23:39:52.250Z,22.28
2023-04-05T23:42:19.988Z,22.15
2023-04-05T23:44:47.746Z,22.26
2023-04-05T23:47:15.604Z,22.17
2023-04-05T23:49:43.431Z,22.14
2023-04-05T23:52:13.076Z,22.10
2023-04-05T23:54:41.016Z,22.14
2023-04-05T23:57:08.915Z,22.11
2023-04-05T23:59:36.846Z,22.08
